createdAt,value
2018-09-06T00:00:14.529Z,0
2018-09-06T00:01:14.803Z,0
2018-09-06T00:02:14.699Z,0
2018-09-06T00:03:14.226Z,0
2018-09-06T00:04:14.487Z,0
2018-09-06T00:05:14.477Z,0
2018-09-06T00:06:14.462Z,0
2018-09-06T00:07:14.179Z,0
2018-09-06T00:08:14.216Z,0
2018-09-06T00:09:14.685Z,0
2018-09-06T00:10:14.463Z,0
2018-09-06T00:11:14.663Z,0
2018-09-06T00:12:14.395Z,0
2018-09-06T00:13:14.384Z,0
2018-09-06T00:14:14.098Z,0
2018-09-06T00:15:14.357Z,0
2018-09-06T00:16:14.350Z,0
2018-09-06T00:17:14.337Z,0
2018-09-06T00:18:14.056Z,0
2018-09-06T00:19:14.092Z,0
2018-09-06T00:20:14.571Z,0
2018-09-06T00:21:14.290Z,0
2018-09-06T00:22:14.023Z,0
2018-09-06T00:23:14.001Z,0
2018-09-06T00:24:14.249Z,0
2018-09-06T00:25:13.978Z,0
2018-09-06T00:26:14.433Z,0
2018-09-06T00:27:14.221Z,0
2018-09-06T00:28:14.212Z,0
2018-09-06T00:29:14.194Z,0
2018-09-06T00:30:14.186Z,0
2018-09-06T00:31:14.176Z,0
2018-09-06T00:32:14.161Z,0
2018-09-06T00:33:14.413Z,0
2018-09-06T00:34:14.415Z,0
2018-09-06T00:35:14.125Z,0
2018-09-06T00:36:14.379Z,0
2018-09-06T00:37:14.371Z,0
2018-09-06T00:38:13.826Z,0
2018-09-06T00:39:14.142Z,0
2018-09-06T00:40:14.066Z,0
2018-09-06T00:41:14.059Z,0
2018-09-06T00:42:14.049Z,0
2018-09-06T00:43:14.303Z,0
2018-09-06T00:44:14.303Z,0
2018-09-06T00:45:14.010Z,0
2018-09-06T00:46:14.260Z,0
2018-09-06T00:47:13.981Z,0
2018-09-06T00:48:13.976Z,0
2018-09-06T00:49:13.694Z,0
2018-09-06T00:50:14.206Z,0
2018-09-06T00:51:13.408Z,0
2018-09-06T00:52:14.183Z,0
2018-09-06T00:53:13.646Z,0
2018-09-06T00:54:13.901Z,0
2018-09-06T00:55:14.142Z,0
2018-09-06T00:56:13.612Z,0
2018-09-06T00:57:13.855Z,0
2018-09-06T00:58:13.846Z,0
2018-09-06T00:59:14.107Z,0
2018-09-06T01:00:13.822Z,0
2018-09-06T01:01:13.809Z,0
2018-09-06T01:02:13.540Z,0
2018-09-06T01:03:13.807Z,0
2018-09-06T01:04:14.041Z,0
2018-09-06T01:05:13.501Z,0
2018-09-06T01:06:13.763Z,0
2018-09-06T01:07:14.006Z,0
2018-09-06T01:08:13.467Z,0
2018-09-06T01:09:13.983Z,0
2018-09-06T01:10:13.447Z,0
2018-09-06T01:11:13.431Z,0
2018-09-06T01:12:13.953Z,0
2018-09-06T01:13:13.675Z,0
2018-09-06T01:14:13.660Z,0
2018-09-06T01:15:13.647Z,0
2018-09-06T01:16:13.365Z,0
2018-09-06T01:17:13.884Z,0
2018-09-06T01:18:13.605Z,0
2018-09-06T01:19:13.597Z,0
2018-09-06T01:20:13.324Z,0
2018-09-06T01:21:13.312Z,0
2018-09-06T01:22:13.828Z,0
2018-09-06T01:23:13.558Z,0
2018-09-06T01:24:13.281Z,0
2018-09-06T01:25:13.268Z,0
2018-09-06T01:26:13.259Z,0
2018-09-06T01:27:13.499Z,0
2018-09-06T01:28:13.493Z,0
2018-09-06T01:29:13.481Z,0
2018-09-06T01:30:13.475Z,0
2018-09-06T01:31:13.460Z,0
2018-09-06T01:32:13.178Z,0
2018-09-06T01:33:13.164Z,0
2018-09-06T01:34:13.422Z,0
2018-09-06T01:35:13.731Z,0
2018-09-06T01:36:13.184Z,0
2018-09-06T01:37:13.121Z,0
2018-09-06T01:38:13.105Z,0
2018-09-06T01:39:13.096Z,0
2018-09-06T01:40:13.355Z,0
2018-09-06T01:41:13.599Z,0
2018-09-06T01:42:12.796Z,0
2018-09-06T01:43:13.044Z,0
2018-09-06T01:44:13.570Z,0
2018-09-06T01:45:13.291Z,0
2018-09-06T01:46:13.537Z,0
2018-09-06T01:47:13.010Z,0
2018-09-06T01:48:13.521Z,0
2018-09-06T01:49:13.500Z,0
2018-09-06T01:50:13.225Z,0
2018-09-06T01:51:12.948Z,0
2018-09-06T01:52:13.202Z,0
2018-09-06T01:53:12.927Z,0
2018-09-06T01:54:12.913Z,0
2018-09-06T01:55:13.164Z,0
2018-09-06T01:56:13.156Z,0
2018-09-06T01:57:12.874Z,0
2018-09-06T01:58:13.396Z,0
2018-09-06T01:59:13.121Z,0
2018-09-06T02:00:12.845Z,0
2018-09-06T02:01:13.097Z,0
2018-09-06T02:02:13.345Z,0
2018-09-06T02:03:13.070Z,0
2018-09-06T02:04:12.524Z,0
2018-09-06T02:05:12.790Z,0
2018-09-06T02:06:12.504Z,0
2018-09-06T02:07:13.293Z,0
2018-09-06T02:08:12.750Z,0
2018-09-06T02:09:13.264Z,0
2018-09-06T02:10:12.718Z,0
2018-09-06T02:11:12.982Z,0
2018-09-06T02:12:13.229Z,0
2018-09-06T02:13:12.735Z,0
2018-09-06T02:14:12.938Z,0
2018-09-06T02:15:12.925Z,0
2018-09-06T02:16:12.910Z,0
2018-09-06T02:17:13.165Z,0
2018-09-06T02:18:12.637Z,0
2018-09-06T02:19:13.138Z,0
2018-09-06T02:20:12.860Z,0
2018-09-06T02:21:12.589Z,0
2018-09-06T02:22:12.839Z,0
2018-09-06T02:23:12.874Z,0
2018-09-06T02:24:12.555Z,0
2018-09-06T02:25:12.807Z,0
2018-09-06T02:26:13.191Z,0
2018-09-06T02:27:12.784Z,0
2018-09-06T02:28:12.238Z,0
2018-09-06T02:29:12.756Z,0
2018-09-06T02:30:12.771Z,0
2018-09-06T02:31:12.723Z,0
2018-09-06T02:32:12.988Z,0
2018-09-06T02:33:12.973Z,0
2018-09-06T02:34:12.963Z,0
2018-09-06T02:35:12.946Z,0
2018-09-06T02:36:12.937Z,0
2018-09-06T02:37:12.927Z,0
2018-09-06T02:38:12.659Z,0
2018-09-06T02:39:12.114Z,0
2018-09-06T02:40:12.619Z,0
2018-09-06T02:41:12.937Z,0
2018-09-06T02:42:12.332Z,0
2018-09-06T02:43:12.588Z,0
2018-09-06T02:44:12.571Z,0
2018-09-06T02:45:12.308Z,0
2018-09-06T02:46:12.554Z,0
2018-09-06T02:47:12.541Z,0
2018-09-06T02:48:12.598Z,0
2018-09-06T02:49:12.788Z,0
2018-09-06T02:50:12.506Z,0
2018-09-06T02:51:12.481Z,0
2018-09-06T02:52:12.471Z,0
2018-09-06T02:53:12.467Z,0
2018-09-06T02:54:12.444Z,0
2018-09-06T02:55:12.713Z,0
2018-09-06T02:56:12.693Z,0
2018-09-06T02:57:12.683Z,0
2018-09-06T02:58:12.397Z,0
2018-09-06T02:59:12.651Z,0
2018-09-06T03:00:12.125Z,0
2018-09-06T03:01:12.632Z,0
2018-09-06T03:02:12.613Z,0
2018-09-06T03:03:12.369Z,0
2018-09-06T03:04:12.358Z,0
2018-09-06T03:05:12.585Z,0
2018-09-06T03:06:12.037Z,0
2018-09-06T03:07:11.768Z,0
2018-09-06T03:08:12.011Z,0
2018-09-06T03:09:12.269Z,0
2018-09-06T03:10:12.256Z,0
2018-09-06T03:11:12.264Z,0
2018-09-06T03:12:11.702Z,0
2018-09-06T03:13:11.960Z,0
2018-09-06T03:14:11.941Z,0
2018-09-06T03:15:12.285Z,0
2018-09-06T03:16:12.456Z,0
2018-09-06T03:17:12.441Z,0
2018-09-06T03:18:11.889Z,0
2018-09-06T03:19:12.411Z,0
2018-09-06T03:20:11.609Z,0
2018-09-06T03:21:12.139Z,0
2018-09-06T03:22:12.110Z,0
2018-09-06T03:23:12.111Z,0
2018-09-06T03:24:12.083Z,0
2018-09-06T03:25:12.084Z,0
2018-09-06T03:26:11.585Z,0
2018-09-06T03:27:12.045Z,0
2018-09-06T03:28:11.767Z,0
2018-09-06T03:29:12.035Z,0
2018-09-06T03:30:12.023Z,0
2018-09-06T03:31:12.278Z,0
2018-09-06T03:32:12.264Z,0
2018-09-06T03:33:11.981Z,0
2018-09-06T03:34:11.958Z,0
2018-09-06T03:35:12.217Z,0
2018-09-06T03:36:11.683Z,0
2018-09-06T03:37:11.929Z,0
2018-09-06T03:38:11.387Z,0
2018-09-06T03:39:12.160Z,0
2018-09-06T03:40:11.888Z,0
2018-09-06T03:41:12.160Z,0
2018-09-06T03:42:11.865Z,0
2018-09-06T03:43:11.851Z,0
2018-09-06T03:44:11.625Z,0
2018-09-06T03:45:11.833Z,0
2018-09-06T03:46:11.294Z,0
2018-09-06T03:47:11.535Z,0
2018-09-06T03:48:11.797Z,0
2018-09-06T03:49:11.773Z,0
2018-09-06T03:50:12.020Z,0
2018-09-06T03:51:11.761Z,0
2018-09-06T03:52:12.002Z,0
2018-09-06T03:53:11.461Z,0
2018-09-06T03:54:11.717Z,0
2018-09-06T03:55:11.751Z,0
2018-09-06T03:56:11.421Z,0
2018-09-06T03:57:11.407Z,0
2018-09-06T03:58:11.674Z,0
2018-09-06T03:59:11.940Z,0
2018-09-06T04:00:11.639Z,0
2018-09-06T04:01:11.897Z,0
2018-09-06T04:02:11.608Z,0
2018-09-06T04:03:11.872Z,0
2018-09-06T04:04:11.586Z,0
2018-09-06T04:05:11.584Z,0
2018-09-06T04:06:11.567Z,0
2018-09-06T04:07:11.545Z,0
2018-09-06T04:08:11.284Z,0
2018-09-06T04:09:11.783Z,0
2018-09-06T04:10:11.253Z,0
2018-09-06T04:11:10.979Z,0
2018-09-06T04:12:11.756Z,0
2018-09-06T04:13:11.742Z,0
2018-09-06T04:14:11.207Z,0
2018-09-06T04:15:11.194Z,0
2018-09-06T04:16:11.437Z,0
2018-09-06T04:17:11.167Z,0
2018-09-06T04:18:11.156Z,0
2018-09-06T04:19:11.389Z,0
2018-09-06T04:20:11.666Z,4
2018-09-06T04:21:11.120Z,0
2018-09-06T04:22:11.370Z,0
2018-09-06T04:23:11.617Z,4
2018-09-06T04:24:11.427Z,4
2018-09-06T04:25:11.333Z,4
2018-09-06T04:26:11.248Z,4
2018-09-06T04:27:11.585Z,4
2018-09-06T04:28:11.558Z,8
2018-09-06T04:29:11.562Z,8
2018-09-06T04:30:11.260Z,8
2018-09-06T04:31:10.984Z,8
2018-09-06T04:32:11.517Z,12
2018-09-06T04:33:11.493Z,12
2018-09-06T04:34:11.209Z,16
2018-09-06T04:35:11.203Z,20
2018-09-06T04:36:11.514Z,20
2018-09-06T04:37:10.640Z,24
2018-09-06T04:38:11.158Z,28
2018-09-06T04:39:11.141Z,32
2018-09-06T04:40:11.406Z,36
2018-09-06T04:41:11.124Z,44
2018-09-06T04:42:11.109Z,48
2018-09-06T04:43:11.362Z,52
2018-09-06T04:44:11.339Z,60
2018-09-06T04:45:11.080Z,68
2018-09-06T04:46:10.797Z,72
2018-09-06T04:47:11.041Z,84
2018-09-06T04:48:11.031Z,88
2018-09-06T04:49:11.292Z,100
2018-09-06T04:50:11.284Z,108
2018-09-06T04:51:10.992Z,120
2018-09-06T04:52:10.993Z,132
2018-09-06T04:53:10.972Z,140
2018-09-06T04:54:11.221Z,152
2018-09-06T04:55:10.692Z,164
2018-09-06T04:56:10.942Z,176
2018-09-06T04:57:10.923Z,188
2018-09-06T04:58:11.176Z,200
2018-09-06T04:59:10.904Z,216
2018-09-06T05:00:10.619Z,228
2018-09-06T05:01:10.874Z,240
2018-09-06T05:02:11.124Z,256
2018-09-06T05:03:10.844Z,268
2018-09-06T05:04:10.329Z,284
2018-09-06T05:05:10.823Z,296
2018-09-06T05:06:10.804Z,312
2018-09-06T05:07:11.055Z,320
2018-09-06T05:08:10.515Z,332
2018-09-06T05:09:11.042Z,340
2018-09-06T05:10:10.229Z,352
2018-09-06T05:11:10.744Z,360
2018-09-06T05:12:10.998Z,368
2018-09-06T05:13:10.466Z,384
2018-09-06T05:14:10.982Z,400
2018-09-06T05:15:10.739Z,416
2018-09-06T05:16:10.154Z,424
2018-09-06T05:17:10.138Z,424
2018-09-06T05:18:10.668Z,428
2018-09-06T05:19:10.651Z,420
2018-09-06T05:20:10.634Z,396
2018-09-06T05:21:10.883Z,376
2018-09-06T05:22:10.413Z,364
2018-09-06T05:23:10.863Z,364
2018-09-06T05:24:10.582Z,380
2018-09-06T05:25:10.301Z,392
2018-09-06T05:26:10.824Z,416
2018-09-06T05:27:10.806Z,440
2018-09-06T05:28:10.532Z,456
2018-09-06T05:29:10.514Z,480
2018-09-06T05:30:10.238Z,500
2018-09-06T05:31:10.229Z,516
2018-09-06T05:32:10.217Z,540
2018-09-06T05:33:10.735Z,548
2018-09-06T05:34:10.721Z,564
2018-09-06T05:35:10.238Z,580
2018-09-06T05:36:11.232Z,588
2018-09-06T05:37:10.420Z,596
2018-09-06T05:38:10.153Z,616
2018-09-06T05:39:09.870Z,636
2018-09-06T05:40:10.644Z,660
2018-09-06T05:41:10.373Z,684
2018-09-06T05:42:10.360Z,728
2018-09-06T05:43:10.076Z,788
2018-09-06T05:44:10.066Z,848
2018-09-06T05:45:10.323Z,896
2018-09-06T05:46:10.034Z,940
2018-09-06T05:47:10.290Z,968
2018-09-06T05:48:10.016Z,996
2018-09-06T05:49:09.999Z,1020
2018-09-06T05:50:10.529Z,1044
2018-09-06T05:51:10.237Z,1088
2018-09-06T05:52:10.227Z,1116
2018-09-06T05:53:10.222Z,1140
2018-09-06T05:54:10.466Z,1200
2018-09-06T05:55:10.196Z,1280
2018-09-06T05:56:10.172Z,1368
2018-09-06T05:57:10.170Z,1468
2018-09-06T05:58:10.672Z,1580
2018-09-06T05:59:09.874Z,1696
2018-09-06T06:00:10.033Z,1824
2018-09-06T06:01:09.852Z,1968
2018-09-06T06:02:09.838Z,2084
2018-09-06T06:03:09.837Z,2176
2018-09-06T06:04:10.347Z,2268
2018-09-06T06:05:10.395Z,2348
2018-09-06T06:06:09.520Z,2424
2018-09-06T06:07:10.049Z,2520
2018-09-06T06:08:09.501Z,2656
2018-09-06T06:09:10.013Z,2788
2018-09-06T06:10:10.010Z,2940
2018-09-06T06:11:09.992Z,3136
2018-09-06T06:12:09.719Z,3328
2018-09-06T06:13:10.240Z,3460
2018-09-06T06:14:09.954Z,3576
2018-09-06T06:15:09.941Z,3752
2018-09-06T06:16:10.189Z,3880
2018-09-06T06:17:10.273Z,3928
2018-09-06T06:18:09.646Z,3932
2018-09-06T06:19:09.898Z,3908
2018-09-06T06:20:10.156Z,3880
2018-09-06T06:21:09.875Z,3912
2018-09-06T06:22:09.878Z,4008
2018-09-06T06:23:09.585Z,3956
2018-09-06T06:24:09.591Z,3764
2018-09-06T06:25:10.094Z,3604
2018-09-06T06:26:11.203Z,3596
2018-09-06T06:27:09.534Z,3720
2018-09-06T06:28:09.526Z,3880
2018-09-06T06:29:09.515Z,3912
2018-09-06T06:30:09.768Z,3652
2018-09-06T06:31:09.490Z,3340
2018-09-06T06:32:09.616Z,3192
2018-09-06T06:33:09.995Z,3108
2018-09-06T06:34:09.973Z,3112
2018-09-06T06:35:09.711Z,2976
2018-09-06T06:36:09.437Z,2908
2018-09-06T06:37:09.696Z,2904
2018-09-06T06:38:09.690Z,2940
2018-09-06T06:39:09.930Z,2984
2018-09-06T06:40:09.653Z,2904
2018-09-06T06:41:09.930Z,2792
2018-09-06T06:42:09.638Z,2708
2018-09-06T06:43:09.623Z,2676
2018-09-06T06:44:09.877Z,2680
2018-09-06T06:45:09.599Z,2656
2018-09-06T06:46:09.594Z,2620
2018-09-06T06:47:09.314Z,2524
2018-09-06T06:48:09.303Z,2412
2018-09-06T06:49:09.563Z,2268
2018-09-06T06:50:09.547Z,2052
2018-09-06T06:51:09.306Z,1852
2018-09-06T06:52:09.529Z,1680
2018-09-06T06:53:09.263Z,1520
2018-09-06T06:54:09.242Z,1444
2018-09-06T06:55:09.754Z,1484
2018-09-06T06:56:08.954Z,1560
2018-09-06T06:57:09.476Z,1672
2018-09-06T06:58:09.208Z,1812
2018-09-06T06:59:09.705Z,1984
2018-09-06T07:00:09.456Z,2140
2018-09-06T07:01:09.972Z,2232
2018-09-06T07:02:09.417Z,2276
2018-09-06T07:03:09.405Z,2448
2018-09-06T07:04:09.263Z,2696
2018-09-06T07:05:09.119Z,2892
2018-09-06T07:06:09.371Z,3044
2018-09-06T07:07:09.347Z,3208
2018-09-06T07:08:09.356Z,3328
2018-09-06T07:09:09.095Z,3348
2018-09-06T07:10:09.605Z,3308
2018-09-06T07:11:09.106Z,3320
2018-09-06T07:12:09.583Z,3368
2018-09-06T07:13:09.305Z,3408
2018-09-06T07:14:09.329Z,3372
2018-09-06T07:15:09.275Z,3308
2018-09-06T07:16:09.273Z,3256
2018-09-06T07:17:09.515Z,3184
2018-09-06T07:18:09.334Z,3116
2018-09-06T07:19:09.243Z,3168
2018-09-06T07:20:09.492Z,3516
2018-09-06T07:21:09.480Z,4016
2018-09-06T07:22:09.518Z,4476
2018-09-06T07:23:08.662Z,4580
2018-09-06T07:24:09.454Z,4464
2018-09-06T07:25:09.232Z,4372
2018-09-06T07:26:09.158Z,4316
2018-09-06T07:27:09.415Z,4208
2018-09-06T07:28:08.871Z,4192
2018-09-06T07:29:09.389Z,4096
2018-09-06T07:30:09.112Z,4052
2018-09-06T07:31:08.865Z,4096
2018-09-06T07:32:09.144Z,4140
2018-09-06T07:33:09.352Z,3984
2018-09-06T07:34:09.070Z,3856
2018-09-06T07:35:08.902Z,3780
2018-09-06T07:36:09.319Z,3684
2018-09-06T07:37:08.782Z,3624
2018-09-06T07:38:09.036Z,3528
2018-09-06T07:39:09.289Z,3484
2018-09-06T07:40:09.274Z,3544
2018-09-06T07:41:09.365Z,3652
2018-09-06T07:42:08.987Z,3784
2018-09-06T07:43:09.276Z,3848
2018-09-06T07:44:09.246Z,3888
2018-09-06T07:45:09.243Z,4044
2018-09-06T07:46:08.423Z,4184
2018-09-06T07:47:08.942Z,4252
2018-09-06T07:48:08.933Z,4244
2018-09-06T07:49:08.657Z,4168
2018-09-06T07:50:09.512Z,4108
2018-09-06T07:51:08.908Z,4120
2018-09-06T07:52:09.218Z,4012
2018-09-06T07:53:09.212Z,3908
2018-09-06T07:54:08.871Z,3808
2018-09-06T07:55:08.873Z,3724
2018-09-06T07:56:08.848Z,3600
2018-09-06T07:57:09.115Z,3316
2018-09-06T07:58:09.113Z,3068
2018-09-06T07:59:08.556Z,3008
2018-09-06T08:00:09.085Z,3084
2018-09-06T08:01:08.816Z,3356
2018-09-06T08:02:08.532Z,3560
2018-09-06T08:03:08.775Z,3500
2018-09-06T08:04:08.812Z,3340
2018-09-06T08:05:08.501Z,3448
2018-09-06T08:06:08.750Z,3588
2018-09-06T08:07:09.003Z,3800
2018-09-06T08:08:08.995Z,3812
2018-09-06T08:09:08.985Z,3740
2018-09-06T08:10:08.447Z,3740
2018-09-06T08:11:08.698Z,3824
2018-09-06T08:12:08.906Z,4124
2018-09-06T08:13:08.947Z,4480
2018-09-06T08:14:08.665Z,4384
2018-09-06T08:15:08.401Z,4232
2018-09-06T08:16:08.382Z,4052
2018-09-06T08:17:08.652Z,3768
2018-09-06T08:18:08.894Z,3492
2018-09-06T08:19:08.895Z,3288
2018-09-06T08:20:08.337Z,3232
2018-09-06T08:21:08.857Z,3200
2018-09-06T08:22:08.907Z,3208
2018-09-06T08:23:08.328Z,3100
2018-09-06T08:24:08.569Z,2860
2018-09-06T08:25:08.561Z,2684
2018-09-06T08:26:08.565Z,2740
2018-09-06T08:27:08.348Z,2660
2018-09-06T08:28:08.528Z,2404
2018-09-06T08:29:08.258Z,2200
2018-09-06T08:30:07.981Z,2024
2018-09-06T08:31:09.158Z,1924
2018-09-06T08:32:08.751Z,1828
2018-09-06T08:33:08.221Z,1704
2018-09-06T08:34:08.209Z,1596
2018-09-06T08:35:08.465Z,1544
2018-09-06T08:36:08.719Z,1524
2018-09-06T08:37:08.900Z,1496
2018-09-06T08:38:08.690Z,1488
2018-09-06T08:39:08.151Z,1484
2018-09-06T08:40:08.674Z,1472
2018-09-06T08:41:08.654Z,1404
2018-09-06T08:42:08.435Z,1324
2018-09-06T08:43:08.113Z,1248
2018-09-06T08:44:08.363Z,1176
2018-09-06T08:45:08.352Z,1116
2018-09-06T08:46:08.352Z,1088
2018-09-06T08:47:08.126Z,1088
2018-09-06T08:48:08.056Z,1100
2018-09-06T08:49:08.321Z,1120
2018-09-06T08:50:08.317Z,1148
2018-09-06T08:51:08.640Z,1180
2018-09-06T08:52:08.569Z,1216
2018-09-06T08:53:08.319Z,1248
2018-09-06T08:54:08.266Z,1292
2018-09-06T08:55:07.984Z,1340
2018-09-06T08:56:08.243Z,1368
2018-09-06T08:57:08.230Z,1356
2018-09-06T08:58:08.224Z,1328
2018-09-06T08:59:08.227Z,1288
2018-09-06T09:00:08.473Z,1248
2018-09-06T09:01:08.500Z,1224
2018-09-06T09:02:08.032Z,1232
2018-09-06T09:03:08.067Z,1260
2018-09-06T09:04:08.157Z,1308
2018-09-06T09:05:08.185Z,1336
2018-09-06T09:06:07.976Z,1308
2018-09-06T09:07:07.593Z,1276
2018-09-06T09:08:08.108Z,1248
2018-09-06T09:09:08.373Z,1240
2018-09-06T09:10:08.094Z,1252
2018-09-06T09:11:07.823Z,1272
2018-09-06T09:12:07.803Z,1308
2018-09-06T09:13:08.434Z,1344
2018-09-06T09:14:07.788Z,1400
2018-09-06T09:15:08.036Z,1464
2018-09-06T09:16:07.500Z,1540
2018-09-06T09:17:08.028Z,1620
2018-09-06T09:18:08.019Z,1708
2018-09-06T09:19:08.015Z,1828
2018-09-06T09:20:07.726Z,1948
2018-09-06T09:21:08.036Z,2052
2018-09-06T09:22:08.779Z,2136
2018-09-06T09:23:07.952Z,2212
2018-09-06T09:24:07.941Z,2296
2018-09-06T09:25:08.220Z,2416
2018-09-06T09:26:07.953Z,2532
2018-09-06T09:27:08.208Z,2660
2018-09-06T09:28:08.000Z,2816
2018-09-06T09:29:08.180Z,2964
2018-09-06T09:30:07.881Z,3100
2018-09-06T09:31:07.862Z,3168
2018-09-06T09:32:07.864Z,3236
2018-09-06T09:33:07.581Z,3364
2018-09-06T09:34:07.568Z,3520
2018-09-06T09:35:08.109Z,3632
2018-09-06T09:36:07.812Z,3592
2018-09-06T09:37:08.087Z,3456
2018-09-06T09:38:08.058Z,3292
2018-09-06T09:39:07.520Z,3228
2018-09-06T09:40:07.766Z,3104
2018-09-06T09:41:07.498Z,3052
2018-09-06T09:42:07.755Z,3120
2018-09-06T09:43:07.778Z,3184
2018-09-06T09:44:07.732Z,3160
2018-09-06T09:45:07.980Z,3160
2018-09-06T09:48:07.685Z,2852
2018-09-06T09:49:07.677Z,2780
2018-09-06T09:50:07.660Z,2736
2018-09-06T09:51:07.919Z,2708
2018-09-06T09:52:07.903Z,2680
2018-09-06T09:53:07.633Z,2668
2018-09-06T09:54:07.634Z,2676
2018-09-06T09:55:07.606Z,2700
2018-09-06T09:56:07.879Z,2760
2018-09-06T09:57:07.494Z,2820
2018-09-06T09:58:07.632Z,2864
2018-09-06T09:59:07.565Z,2972
2018-09-06T10:00:07.829Z,3060
2018-09-06T10:01:07.285Z,3172
2018-09-06T10:02:07.545Z,3328
2018-09-06T10:03:07.787Z,3344
2018-09-06T10:04:07.516Z,3332
2018-09-06T10:05:06.978Z,3212
2018-09-06T10:06:07.762Z,3044
2018-09-06T10:07:07.748Z,2912
2018-09-06T10:08:07.738Z,2844
2018-09-06T10:09:07.477Z,2816
2018-09-06T10:10:07.451Z,2820
2018-09-06T10:11:07.449Z,2840
2018-09-06T10:12:07.169Z,2848
2018-09-06T10:13:07.169Z,2872
2018-09-06T10:14:07.411Z,2908
2018-09-06T10:15:06.921Z,2952
2018-09-06T10:16:07.392Z,3012
2018-09-06T10:17:07.112Z,3092
2018-09-06T10:18:07.581Z,3172
2018-09-06T10:19:07.356Z,3224
2018-09-06T10:20:07.350Z,3224
2018-09-06T10:21:07.595Z,3260
2018-09-06T10:22:07.333Z,3212
2018-09-06T10:23:07.319Z,3108
2018-09-06T10:24:07.569Z,2964
2018-09-06T10:25:07.300Z,2808
2018-09-06T10:26:07.298Z,2708
2018-09-06T10:27:06.947Z,2612
2018-09-06T10:28:07.545Z,2504
2018-09-06T10:29:07.316Z,2408
2018-09-06T10:30:07.255Z,2312
2018-09-06T10:31:07.238Z,2248
2018-09-06T10:32:07.233Z,2192
2018-09-06T10:33:06.969Z,2152
2018-09-06T10:34:06.942Z,2156
2018-09-06T10:35:07.200Z,2196
2018-09-06T10:36:06.928Z,2260
2018-09-06T10:37:07.106Z,2344
2018-09-06T10:38:07.168Z,2408
2018-09-06T10:39:07.419Z,2408
2018-09-06T10:40:07.062Z,2348
2018-09-06T10:41:07.128Z,2204
2018-09-06T10:42:07.374Z,2120
2018-09-06T10:43:06.837Z,2172
2018-09-06T10:44:06.824Z,2348
2018-09-06T10:45:06.812Z,2572
2018-09-06T10:46:07.423Z,2716
2018-09-06T10:47:07.061Z,2744
2018-09-06T10:48:07.191Z,2716
2018-09-06T10:49:06.773Z,2712
2018-09-06T10:50:06.766Z,2760
2018-09-06T10:51:06.768Z,2812
2018-09-06T10:52:07.279Z,2880
2018-09-06T10:53:06.998Z,2896
2018-09-06T10:54:07.276Z,2796
2018-09-06T10:55:06.979Z,2676
2018-09-06T10:56:07.232Z,2596
2018-09-06T10:57:06.955Z,2640
2018-09-06T10:58:06.968Z,2776
2018-09-06T10:59:07.193Z,2932
2018-09-06T11:00:07.198Z,3052
2018-09-06T11:01:07.192Z,3212
2018-09-06T11:02:06.894Z,3272
2018-09-06T11:03:06.888Z,3256
2018-09-06T11:04:06.879Z,3280
2018-09-06T11:05:06.337Z,3264
2018-09-06T11:06:06.863Z,3240
2018-09-06T11:07:07.159Z,3224
2018-09-06T11:08:07.819Z,3128
2018-09-06T11:09:07.089Z,2972
2018-09-06T11:10:07.076Z,2844
2018-09-06T11:11:07.082Z,2688
2018-09-06T11:12:06.534Z,2580
2018-09-06T11:13:06.798Z,2528
2018-09-06T11:14:07.033Z,2476
2018-09-06T11:15:06.947Z,2508
2018-09-06T11:16:06.752Z,2632
2018-09-06T11:17:06.739Z,2756
2018-09-06T11:18:07.324Z,2832
2018-09-06T11:19:06.741Z,2904
2018-09-06T11:20:06.445Z,2960
2018-09-06T11:21:06.606Z,3052
2018-09-06T11:22:07.816Z,3152
2018-09-06T11:23:06.681Z,3236
2018-09-06T11:24:06.666Z,3260
2018-09-06T11:25:06.387Z,3216
2018-09-06T11:26:06.644Z,3096
2018-09-06T11:27:06.642Z,2972
2018-09-06T11:28:06.455Z,2836
2018-09-06T11:29:06.866Z,2664
2018-09-06T11:30:06.600Z,2516
2018-09-06T11:31:06.328Z,2360
2018-09-06T11:32:06.577Z,2224
2018-09-06T11:33:06.587Z,2168
2018-09-06T11:34:06.347Z,2096
2018-09-06T11:35:06.581Z,2020
2018-09-06T11:36:06.540Z,2024
2018-09-06T11:37:06.259Z,2048
2018-09-06T11:38:06.514Z,2072
2018-09-06T11:39:06.505Z,2124
2018-09-06T11:40:06.808Z,2248
2018-09-06T11:41:05.956Z,2408
2018-09-06T11:42:06.732Z,2552
2018-09-06T11:43:06.187Z,2640
2018-09-06T11:44:06.751Z,2692
2018-09-06T11:45:06.492Z,2708
2018-09-06T11:46:05.903Z,2648
2018-09-06T11:47:06.729Z,2584
2018-09-06T11:48:06.420Z,2564
2018-09-06T11:49:06.396Z,2576
2018-09-06T11:50:06.386Z,2600
2018-09-06T11:51:06.111Z,2652
2018-09-06T11:52:05.834Z,2728
2018-09-06T11:53:06.628Z,2836
2018-09-06T11:54:06.343Z,2956
2018-09-06T11:55:06.333Z,2984
2018-09-06T11:56:06.323Z,2880
2018-09-06T11:57:06.049Z,2652
2018-09-06T11:58:06.300Z,2432
2018-09-06T11:59:06.549Z,2244
2018-09-06T12:00:06.013Z,2124
2018-09-06T12:01:06.536Z,2048
2018-09-06T12:02:06.083Z,1988
2018-09-06T12:03:06.246Z,1928
2018-09-06T12:04:06.232Z,1860
2018-09-06T12:05:06.503Z,1796
2018-09-06T12:06:06.422Z,1760
2018-09-06T12:07:06.203Z,1720
2018-09-06T12:08:06.453Z,1684
2018-09-06T12:09:06.477Z,1628
2018-09-06T12:10:06.221Z,1528
2018-09-06T12:11:06.157Z,1480
2018-09-06T12:12:06.145Z,1464
2018-09-06T12:13:05.871Z,1380
2018-09-06T12:14:06.132Z,1308
2018-09-06T12:15:06.375Z,1276
2018-09-06T12:16:06.115Z,1220
2018-09-06T12:17:06.094Z,1176
2018-09-06T12:18:06.116Z,1136
2018-09-06T12:19:05.811Z,1124
2018-09-06T12:20:06.112Z,1116
2018-09-06T12:21:06.316Z,1148
2018-09-06T12:22:06.047Z,1240
2018-09-06T12:23:06.040Z,1364
2018-09-06T12:24:05.752Z,1512
2018-09-06T12:25:05.743Z,1660
2018-09-06T12:26:05.740Z,1808
2018-09-06T12:27:06.199Z,2008
2018-09-06T12:28:05.984Z,2068
2018-09-06T12:29:05.963Z,2076
2018-09-06T12:30:06.374Z,1996
2018-09-06T12:31:05.681Z,1912
2018-09-06T12:32:05.672Z,1824
2018-09-06T12:33:06.071Z,1772
2018-09-06T12:34:06.178Z,1756
2018-09-06T12:35:06.169Z,1792
2018-09-06T12:36:05.890Z,1880
2018-09-06T12:37:06.148Z,2012
2018-09-06T12:38:05.880Z,2176
2018-09-06T12:39:05.855Z,2340
2018-09-06T12:40:05.333Z,2536
2018-09-06T12:41:05.838Z,2788
2018-09-06T12:42:05.826Z,3044
2018-09-06T12:43:06.075Z,3248
2018-09-06T12:44:05.808Z,3392
2018-09-06T12:45:05.270Z,3408
2018-09-06T12:46:05.793Z,3256
2018-09-06T12:47:06.038Z,2984
2018-09-06T12:48:06.035Z,2904
2018-09-06T12:49:06.014Z,2972
2018-09-06T12:50:05.765Z,3112
2018-09-06T12:51:05.934Z,3372
2018-09-06T12:52:05.981Z,3728
2018-09-06T12:53:05.450Z,4060
2018-09-06T12:54:05.970Z,4048
2018-09-06T12:55:05.691Z,3692
2018-09-06T12:56:05.412Z,3224
2018-09-06T12:57:05.668Z,2872
2018-09-06T12:58:05.660Z,2804
2018-09-06T12:59:05.128Z,3004
2018-09-06T13:00:05.651Z,3348
2018-09-06T13:01:05.646Z,3496
2018-09-06T13:02:05.891Z,3476
2018-09-06T13:03:05.609Z,3524
2018-09-06T13:04:05.350Z,3688
2018-09-06T13:05:05.609Z,3836
2018-09-06T13:06:05.316Z,3848
2018-09-06T13:07:05.299Z,3872
2018-09-06T13:08:05.720Z,3960
2018-09-06T13:09:05.586Z,4280
2018-09-06T13:10:05.321Z,4744
2018-09-06T13:11:05.259Z,5380
2018-09-06T13:12:05.779Z,6176
2018-09-06T13:13:05.237Z,6820
2018-09-06T13:14:05.758Z,7304
2018-09-06T13:15:05.490Z,7480
2018-09-06T13:16:05.213Z,7476
2018-09-06T13:17:05.737Z,7300
2018-09-06T13:18:05.459Z,6976
2018-09-06T13:19:05.454Z,6684
2018-09-06T13:20:05.431Z,6612
2018-09-06T13:21:05.690Z,6516
2018-09-06T13:22:05.694Z,6384
2018-09-06T13:23:05.406Z,6312
2018-09-06T13:24:05.398Z,6260
2018-09-06T13:25:05.450Z,6256
2018-09-06T13:26:05.645Z,6368
2018-09-06T13:27:05.371Z,6544
2018-09-06T13:28:05.621Z,6732
2018-09-06T13:29:05.635Z,6980
2018-09-06T13:30:05.123Z,7196
2018-09-06T13:31:05.063Z,7336
2018-09-06T13:32:05.313Z,7536
2018-09-06T13:33:05.308Z,7812
2018-09-06T13:34:05.599Z,8244
2018-09-06T13:35:05.293Z,8728
2018-09-06T13:36:05.308Z,9272
2018-09-06T13:37:05.273Z,9968
2018-09-06T13:38:05.261Z,10916
2018-09-06T13:39:05.308Z,12112
2018-09-06T13:40:04.984Z,12940
2018-09-06T13:41:05.240Z,13996
2018-09-06T13:42:05.502Z,15376
2018-09-06T13:43:04.686Z,17600
2018-09-06T13:44:05.213Z,21728
2018-09-06T13:45:05.207Z,20416
2018-09-06T13:46:04.925Z,18656
2018-09-06T13:47:04.916Z,21600
2018-09-06T13:48:05.173Z,17440
2018-09-06T13:49:05.171Z,16992
2018-09-06T13:50:05.169Z,17248